Aérodrome :
LOGIN :

S'inscrire | Disclaimer

   EN    FR    IT 

 










Légende :    VFR   VFR Marginal   IFR   IFR Intensif   IFR Très Intensif
Visi : 
Plafond : 
>= 8 km
>= 3000ft
5 à 8 km
1000 à 3000 ft
1500m à 5 km
500 à 1000 ft
800 à 1500m
200 à 500 ft
< 800m
< 200 ft
Symboles :   Orages  Brouillard  Fortes neiges  Fortes précipitations  Vent > 20 kt
SIGMETs :   Divers  Orages  Givrage  Turbulence  Onde Orograph.  Cendres Volcan.







- Altitude de l'aérodrome : 1079 ft


ETIK - Illesheim Air Base

DERNIER METAR :
  • 151156Z AUTO 21009KT 9999 BKN032 BKN047 BKN075 05/02 A2946 RMK AO2 RAB09E19 SLP988 P0000 60000 70014 T00470015 10047 20016 58002 $

METARs EXPIRÉS :
  • 151119Z AUTO 23008KT 9999 FEW021 FEW070 04/02 A2946 RMK AO2 RAB09E19 SLP990 $
  • 151109Z AUTO 23009KT 9999 -RA SCT020 BKN070 04/02 A2947 RMK AO2 RAB09 SLP993 $
  • 151056Z AUTO 24009KT 9999 SCT022 BKN027 BKN070 04/01 A2947 RMK AO2 CIG 022V027 SLP993 T00390014 $
  • 150956Z AUTO 20005KT 9999 FEW045 SCT055 03/01 A2948 RMK AO2 SLP997 T00320014 $
  • 150856Z AUTO 23006KT 9999 CLR 03/02 A2946 RMK AO2 SLP988 T00290017 50019 $

TAF AMD TAF ETIK
Valide du 15 à 09h jusqu'au 16 à 12h UTC


150914Z 1509/1612 25009KT 9999 SCT010 BKN020 610205 QNH2940INS
BECMG 1515/1516 23010G15KT 8000 -RA BKN010 610209 QNH2942INS
BECMG 1520/1521 VRB06KT 8000 -RASN BKN006 OVC010 610209 QNH2951INS
BECMG 1607/1608 31006KT 9999 NSW FEW006 BKN010 610106 QNH2964INS
BECMG 1609/1610 31009KT 9999 FEW010 BKN020 610205 QNH2976INS TX05/1513Z TNM01/1606Z
Pas de NOTAMs connus pour ce terrain.



MET'MAP, la Météo Aéronautique d'un coup d'oeil ! - Copyright ORBIFLY Décembre 2007 - Disclaimer

ORBIFLY MET'MAP TEAM :

Programmation & Développement : Alexandra Zaïnal
Conception & Développement : Baudouin d'Aumeries
Co-Programmation & Développement : Marc-Olivier Méhu
Soutien technique & logistique : Manuel Goepfert

Contact : metmap@orbifly.com




SOURCES & CREDITS :

   NOAA